sensor_id;sensor_type;location;lat;lon;timestamp;P1;durP1;ratioP1;P2;durP2;ratioP2
59922;SDS011;45778;51.142;3.732;2023-02-15T00:00:20;67.88;;;35.33;;
59922;SDS011;45778;51.142;3.732;2023-02-15T00:02:46;62.85;;;36.33;;
59922;SDS011;45778;51.142;3.732;2023-02-15T00:05:12;62.25;;;35.25;;
59922;SDS011;45778;51.142;3.732;2023-02-15T00:07:38;60.47;;;34.40;;
59922;SDS011;45778;51.142;3.732;2023-02-15T00:10:04;60.92;;;33.90;;
59922;SDS011;45778;51.142;3.732;2023-02-15T00:12:30;60.28;;;32.67;;
59922;SDS011;45778;51.142;3.732;2023-02-15T00:14:56;62.38;;;34.38;;
59922;SDS011;45778;51.142;3.732;2023-02-15T00:17:22;62.78;;;34.28;;
59922;SDS011;45778;51.142;3.732;2023-02-15T00:19:48;63.25;;;33.67;;
59922;SDS011;45778;51.142;3.732;2023-02-15T00:22:14;59.88;;;34.65;;
59922;SDS011;45778;51.142;3.732;2023-02-15T00:24:40;59.05;;;32.28;;
59922;SDS011;45778;51.142;3.732;2023-02-15T00:27:05;62.05;;;34.15;;
59922;SDS011;45778;51.142;3.732;2023-02-15T00:29:31;57.95;;;34.58;;
59922;SDS011;45778;51.142;3.732;2023-02-15T00:31:57;65.13;;;36.70;;
59922;SDS011;45778;51.142;3.732;2023-02-15T00:34:24;72.07;;;38.78;;
59922;SDS011;45778;51.142;3.732;2023-02-15T00:36:51;68.13;;;38.70;;
59922;SDS011;45778;51.142;3.732;2023-02-15T00:39:17;60.47;;;35.30;;
59922;SDS011;45778;51.142;3.732;2023-02-15T00:41:44;68.82;;;36.63;;
59922;SDS011;45778;51.142;3.732;2023-02-15T00:44:10;63.45;;;34.92;;
59922;SDS011;45778;51.142;3.732;2023-02-15T00:46:37;55.30;;;32.50;;
59922;SDS011;45778;51.142;3.732;2023-02-15T00:49:03;49.17;;;30.83;;
59922;SDS011;45778;51.142;3.732;2023-02-15T00:51:29;45.17;;;29.00;;
59922;SDS011;45778;51.142;3.732;2023-02-15T00:53:55;55.88;;;32.65;;
59922;SDS011;45778;51.142;3.732;2023-02-15T00:56:21;55.63;;;33.42;;
59922;SDS011;45778;51.142;3.732;2023-02-15T00:58:47;69.15;;;38.08;;
59922;SDS011;45778;51.142;3.732;2023-02-15T01:01:14;69.22;;;39.03;;
59922;SDS011;45778;51.142;3.732;2023-02-15T01:03:42;76.20;;;41.95;;
59922;SDS011;45778;51.142;3.732;2023-02-15T01:06:08;77.85;;;41.63;;
59922;SDS011;45778;51.142;3.732;2023-02-15T01:08:35;75.60;;;43.92;;
59922;SDS011;45778;51.142;3.732;2023-02-15T01:11:11;86.88;;;44.50;;
59922;SDS011;45778;51.142;3.732;2023-02-15T01:13:39;71.32;;;43.13;;
59922;SDS011;45778;51.142;3.732;2023-02-15T01:16:05;74.45;;;41.50;;
59922;SDS011;45778;51.142;3.732;2023-02-15T01:18:31;77.90;;;43.22;;
59922;SDS011;45778;51.142;3.732;2023-02-15T01:20:59;71.75;;;40.67;;
59922;SDS011;45778;51.142;3.732;2023-02-15T01:23:24;76.22;;;42.25;;
59922;SDS011;45778;51.142;3.732;2023-02-15T01:25:50;73.53;;;41.42;;
59922;SDS011;45778;51.142;3.732;2023-02-15T01:28:16;79.28;;;43.40;;
59922;SDS011;45778;51.142;3.732;2023-02-15T01:30:42;89.35;;;46.38;;
59922;SDS011;45778;51.142;3.732;2023-02-15T01:33:07;81.47;;;44.70;;
59922;SDS011;45778;51.142;3.732;2023-02-15T01:35:42;80.05;;;43.80;;
59922;SDS011;45778;51.142;3.732;2023-02-15T01:38:09;80.40;;;43.67;;
59922;SDS011;45778;51.142;3.732;2023-02-15T01:40:34;82.22;;;44.38;;
59922;SDS011;45778;51.142;3.732;2023-02-15T01:43:00;82.15;;;47.30;;
59922;SDS011;45778;51.142;3.732;2023-02-15T01:45:27;92.00;;;47.25;;
59922;SDS011;45778;51.142;3.732;2023-02-15T01:50:36;87.07;;;48.42;;
59922;SDS011;45778;51.142;3.732;2023-02-15T01:55:39;86.13;;;46.08;;
59922;SDS011;45778;51.142;3.732;2023-02-15T01:58:09;90.03;;;49.45;;
59922;SDS011;45778;51.142;3.732;2023-02-15T02:00:36;86.53;;;47.72;;
59922;SDS011;45778;51.142;3.732;2023-02-15T02:03:01;86.18;;;47.30;;
59922;SDS011;45778;51.142;3.732;2023-02-15T02:05:29;104.28;;;53.60;;
59922;SDS011;45778;51.142;3.732;2023-02-15T02:07:56;107.30;;;55.03;;
59922;SDS011;45778;51.142;3.732;2023-02-15T02:10:23;99.13;;;53.40;;
59922;SDS011;45778;51.142;3.732;2023-02-15T02:12:56;98.32;;;51.95;;
59922;SDS011;45778;51.142;3.732;2023-02-15T02:15:39;99.45;;;52.60;;
59922;SDS011;45778;51.142;3.732;2023-02-15T02:18:28;91.38;;;50.85;;
59922;SDS011;45778;51.142;3.732;2023-02-15T02:38:12;105.38;;;54.08;;
59922;SDS011;45778;51.142;3.732;2023-02-15T02:46:17;106.85;;;56.72;;
59922;SDS011;45778;51.142;3.732;2023-02-15T02:49:03;129.40;;;66.35;;
59922;SDS011;45778;51.142;3.732;2023-02-15T02:51:29;106.10;;;58.40;;
59922;SDS011;45778;51.142;3.732;2023-02-15T02:53:56;121.85;;;67.22;;
59922;SDS011;45778;51.142;3.732;2023-02-15T02:56:29;141.98;;;72.18;;
59922;SDS011;45778;51.142;3.732;2023-02-15T03:01:39;168.15;;;80.82;;
59922;SDS011;45778;51.142;3.732;2023-02-15T03:04:15;158.07;;;80.28;;
59922;SDS011;45778;51.142;3.732;2023-02-15T03:07:03;159.48;;;77.80;;
59922;SDS011;45778;51.142;3.732;2023-02-15T03:12:09;155.05;;;77.30;;
59922;SDS011;45778;51.142;3.732;2023-02-15T03:14:40;167.00;;;76.93;;
59922;SDS011;45778;51.142;3.732;2023-02-15T03:17:09;163.00;;;82.78;;
59922;SDS011;45778;51.142;3.732;2023-02-15T03:19:37;168.98;;;83.18;;
59922;SDS011;45778;51.142;3.732;2023-02-15T03:22:05;159.50;;;81.32;;
59922;SDS011;45778;51.142;3.732;2023-02-15T03:24:36;167.88;;;82.38;;
59922;SDS011;45778;51.142;3.732;2023-02-15T03:27:13;163.60;;;81.63;;
59922;SDS011;45778;51.142;3.732;2023-02-15T03:29:43;159.38;;;78.32;;
59922;SDS011;45778;51.142;3.732;2023-02-15T03:32:21;166.77;;;82.70;;
59922;SDS011;45778;51.142;3.732;2023-02-15T03:34:50;167.25;;;81.53;;
59922;SDS011;45778;51.142;3.732;2023-02-15T03:42:54;195.20;;;88.82;;
59922;SDS011;45778;51.142;3.732;2023-02-15T03:45:27;175.27;;;82.95;;
59922;SDS011;45778;51.142;3.732;2023-02-15T03:47:56;166.20;;;80.32;;
59922;SDS011;45778;51.142;3.732;2023-02-15T03:50:26;161.43;;;82.13;;
59922;SDS011;45778;51.142;3.732;2023-02-15T03:53:14;169.80;;;82.85;;
59922;SDS011;45778;51.142;3.732;2023-02-15T03:55:45;189.18;;;85.50;;
59922;SDS011;45778;51.142;3.732;2023-02-15T03:58:12;157.13;;;77.20;;
59922;SDS011;45778;51.142;3.732;2023-02-15T04:04:05;138.40;;;70.53;;
59922;SDS011;45778;51.142;3.732;2023-02-15T04:06:35;129.20;;;69.80;;
59922;SDS011;45778;51.142;3.732;2023-02-15T04:09:00;164.70;;;77.65;;
59922;SDS011;45778;51.142;3.732;2023-02-15T04:11:45;143.32;;;70.63;;
59922;SDS011;45778;51.142;3.732;2023-02-15T04:14:10;146.85;;;73.97;;
59922;SDS011;45778;51.142;3.732;2023-02-15T04:16:55;154.45;;;75.70;;
59922;SDS011;45778;51.142;3.732;2023-02-15T04:19:20;153.77;;;76.90;;
59922;SDS011;45778;51.142;3.732;2023-02-15T04:22:04;149.98;;;76.13;;
59922;SDS011;45778;51.142;3.732;2023-02-15T04:24:48;153.00;;;75.18;;
59922;SDS011;45778;51.142;3.732;2023-02-15T04:27:33;153.65;;;76.90;;
59922;SDS011;45778;51.142;3.732;2023-02-15T04:29:58;156.70;;;78.72;;
59922;SDS011;45778;51.142;3.732;2023-02-15T04:32:24;165.18;;;82.20;;
59922;SDS011;45778;51.142;3.732;2023-02-15T04:34:50;175.85;;;83.97;;
59922;SDS011;45778;51.142;3.732;2023-02-15T04:37:15;193.05;;;92.68;;
59922;SDS011;45778;51.142;3.732;2023-02-15T04:39:41;206.05;;;94.40;;
59922;SDS011;45778;51.142;3.732;2023-02-15T04:42:07;204.07;;;94.75;;
59922;SDS011;45778;51.142;3.732;2023-02-15T04:44:32;210.73;;;93.70;;
59922;SDS011;45778;51.142;3.732;2023-02-15T04:46:58;205.98;;;96.72;;
59922;SDS011;45778;51.142;3.732;2023-02-15T04:49:24;208.57;;;98.13;;
59922;SDS011;45778;51.142;3.732;2023-02-15T04:51:49;200.35;;;95.57;;
59922;SDS011;45778;51.142;3.732;2023-02-15T04:54:15;212.65;;;98.53;;
59922;SDS011;45778;51.142;3.732;2023-02-15T04:56:41;187.43;;;90.88;;
59922;SDS011;45778;51.142;3.732;2023-02-15T04:59:09;171.38;;;83.32;;
59922;SDS011;45778;51.142;3.732;2023-02-15T05:01:35;169.88;;;84.55;;
59922;SDS011;45778;51.142;3.732;2023-02-15T05:04:01;176.75;;;84.38;;
59922;SDS011;45778;51.142;3.732;2023-02-15T05:06:27;179.85;;;87.18;;
59922;SDS011;45778;51.142;3.732;2023-02-15T05:08:53;185.77;;;88.45;;
59922;SDS011;45778;51.142;3.732;2023-02-15T05:11:19;164.13;;;84.18;;
59922;SDS011;45778;51.142;3.732;2023-02-15T05:13:45;170.50;;;84.20;;
59922;SDS011;45778;51.142;3.732;2023-02-15T05:16:11;167.82;;;82.22;;
59922;SDS011;45778;51.142;3.732;2023-02-15T05:18:37;166.25;;;78.85;;
59922;SDS011;45778;51.142;3.732;2023-02-15T05:21:02;177.23;;;82.75;;
59922;SDS011;45778;51.142;3.732;2023-02-15T05:23:28;174.27;;;85.07;;
59922;SDS011;45778;51.142;3.732;2023-02-15T05:25:54;179.27;;;85.93;;
59922;SDS011;45778;51.142;3.732;2023-02-15T05:28:38;170.57;;;80.68;;
59922;SDS011;45778;51.142;3.732;2023-02-15T05:33:39;176.52;;;81.25;;
59922;SDS011;45778;51.142;3.732;2023-02-15T05:36:05;169.40;;;79.47;;
59922;SDS011;45778;51.142;3.732;2023-02-15T05:38:32;165.93;;;80.25;;
59922;SDS011;45778;51.142;3.732;2023-02-15T05:40:58;185.57;;;84.43;;
59922;SDS011;45778;51.142;3.732;2023-02-15T05:43:24;177.68;;;83.25;;
59922;SDS011;45778;51.142;3.732;2023-02-15T05:45:51;184.57;;;83.70;;
59922;SDS011;45778;51.142;3.732;2023-02-15T05:48:19;186.70;;;85.13;;
59922;SDS011;45778;51.142;3.732;2023-02-15T05:50:45;188.73;;;88.40;;
59922;SDS011;45778;51.142;3.732;2023-02-15T05:53:11;199.13;;;87.10;;
59922;SDS011;45778;51.142;3.732;2023-02-15T05:55:38;198.65;;;89.43;;
59922;SDS011;45778;51.142;3.732;2023-02-15T05:58:05;196.90;;;87.43;;
59922;SDS011;45778;51.142;3.732;2023-02-15T06:00:31;187.65;;;85.60;;
59922;SDS011;45778;51.142;3.732;2023-02-15T06:02:57;186.25;;;84.35;;
59922;SDS011;45778;51.142;3.732;2023-02-15T06:05:22;199.93;;;84.57;;
59922;SDS011;45778;51.142;3.732;2023-02-15T06:07:48;187.23;;;84.60;;
59922;SDS011;45778;51.142;3.732;2023-02-15T06:10:14;209.00;;;85.75;;
59922;SDS011;45778;51.142;3.732;2023-02-15T06:12:40;202.23;;;83.70;;
59922;SDS011;45778;51.142;3.732;2023-02-15T06:15:05;187.20;;;80.95;;
59922;SDS011;45778;51.142;3.732;2023-02-15T06:17:31;179.18;;;78.75;;
59922;SDS011;45778;51.142;3.732;2023-02-15T06:19:57;186.95;;;80.97;;
59922;SDS011;45778;51.142;3.732;2023-02-15T06:22:23;187.73;;;80.05;;
59922;SDS011;45778;51.142;3.732;2023-02-15T06:24:48;165.02;;;78.68;;
59922;SDS011;45778;51.142;3.732;2023-02-15T06:27:14;176.55;;;79.40;;
59922;SDS011;45778;51.142;3.732;2023-02-15T06:29:40;173.13;;;78.88;;
59922;SDS011;45778;51.142;3.732;2023-02-15T06:32:06;173.75;;;77.88;;
59922;SDS011;45778;51.142;3.732;2023-02-15T06:34:31;177.45;;;78.70;;
59922;SDS011;45778;51.142;3.732;2023-02-15T06:36:57;182.45;;;78.70;;
59922;SDS011;45778;51.142;3.732;2023-02-15T06:39:23;177.68;;;78.05;;
59922;SDS011;45778;51.142;3.732;2023-02-15T06:41:49;177.02;;;81.55;;
59922;SDS011;45778;51.142;3.732;2023-02-15T06:44:14;167.35;;;76.78;;
59922;SDS011;45778;51.142;3.732;2023-02-15T06:46:40;183.73;;;80.05;;
59922;SDS011;45778;51.142;3.732;2023-02-15T06:49:06;188.18;;;81.10;;
59922;SDS011;45778;51.142;3.732;2023-02-15T06:51:31;168.88;;;74.78;;
59922;SDS011;45778;51.142;3.732;2023-02-15T06:53:58;167.68;;;76.25;;
59922;SDS011;45778;51.142;3.732;2023-02-15T06:56:24;175.05;;;76.45;;
59922;SDS011;45778;51.142;3.732;2023-02-15T06:58:50;161.05;;;73.40;;
59922;SDS011;45778;51.142;3.732;2023-02-15T07:01:17;163.98;;;76.53;;
59922;SDS011;45778;51.142;3.732;2023-02-15T07:03:43;153.73;;;74.70;;
59922;SDS011;45778;51.142;3.732;2023-02-15T07:06:09;162.38;;;74.50;;
59922;SDS011;45778;51.142;3.732;2023-02-15T07:08:35;145.13;;;70.28;;
59922;SDS011;45778;51.142;3.732;2023-02-15T07:11:03;156.07;;;72.80;;
59922;SDS011;45778;51.142;3.732;2023-02-15T07:13:48;151.93;;;68.95;;
59922;SDS011;45778;51.142;3.732;2023-02-15T07:16:14;152.25;;;72.57;;
59922;SDS011;45778;51.142;3.732;2023-02-15T07:18:40;156.18;;;71.53;;
59922;SDS011;45778;51.142;3.732;2023-02-15T07:21:06;143.30;;;68.50;;
59922;SDS011;45778;51.142;3.732;2023-02-15T07:23:34;162.05;;;68.43;;
59922;SDS011;45778;51.142;3.732;2023-02-15T07:26:04;147.23;;;68.70;;
59922;SDS011;45778;51.142;3.732;2023-02-15T07:28:33;167.80;;;72.10;;
59922;SDS011;45778;51.142;3.732;2023-02-15T07:31:03;154.60;;;68.50;;
59922;SDS011;45778;51.142;3.732;2023-02-15T07:33:30;164.45;;;69.18;;
59922;SDS011;45778;51.142;3.732;2023-02-15T07:35:57;146.25;;;68.00;;
59922;SDS011;45778;51.142;3.732;2023-02-15T07:38:26;155.40;;;67.10;;
59922;SDS011;45778;51.142;3.732;2023-02-15T07:41:00;141.05;;;63.67;;
59922;SDS011;45778;51.142;3.732;2023-02-15T07:43:27;144.68;;;64.28;;
59922;SDS011;45778;51.142;3.732;2023-02-15T07:45:54;146.38;;;67.63;;
59922;SDS011;45778;51.142;3.732;2023-02-15T07:48:23;129.52;;;63.95;;
59922;SDS011;45778;51.142;3.732;2023-02-15T07:50:49;126.75;;;65.22;;
59922;SDS011;45778;51.142;3.732;2023-02-15T07:53:14;135.88;;;63.85;;
59922;SDS011;45778;51.142;3.732;2023-02-15T07:55:40;129.60;;;64.75;;
59922;SDS011;45778;51.142;3.732;2023-02-15T07:58:06;127.90;;;65.75;;
59922;SDS011;45778;51.142;3.732;2023-02-15T08:00:32;127.70;;;62.70;;
59922;SDS011;45778;51.142;3.732;2023-02-15T08:03:17;122.10;;;62.20;;
59922;SDS011;45778;51.142;3.732;2023-02-15T08:05:43;121.60;;;61.63;;
59922;SDS011;45778;51.142;3.732;2023-02-15T08:08:10;131.80;;;65.65;;
59922;SDS011;45778;51.142;3.732;2023-02-15T08:11:02;129.73;;;63.03;;
59922;SDS011;45778;51.142;3.732;2023-02-15T08:13:49;90.38;;;48.33;;
59922;SDS011;45778;51.142;3.732;2023-02-15T08:16:22;112.45;;;61.22;;
59922;SDS011;45778;51.142;3.732;2023-02-15T08:18:48;121.28;;;58.70;;
59922;SDS011;45778;51.142;3.732;2023-02-15T08:21:14;108.82;;;56.63;;
59922;SDS011;45778;51.142;3.732;2023-02-15T08:23:40;104.38;;;57.92;;
59922;SDS011;45778;51.142;3.732;2023-02-15T08:26:05;119.47;;;60.95;;
59922;SDS011;45778;51.142;3.732;2023-02-15T08:28:31;107.85;;;55.65;;
59922;SDS011;45778;51.142;3.732;2023-02-15T08:31:04;104.72;;;55.38;;
59922;SDS011;45778;51.142;3.732;2023-02-15T08:33:33;100.80;;;53.95;;
59922;SDS011;45778;51.142;3.732;2023-02-15T08:36:07;99.63;;;50.08;;
59922;SDS011;45778;51.142;3.732;2023-02-15T08:38:35;90.07;;;48.40;;
59922;SDS011;45778;51.142;3.732;2023-02-15T08:43:37;76.57;;;43.08;;
59922;SDS011;45778;51.142;3.732;2023-02-15T08:46:04;78.20;;;42.75;;
59922;SDS011;45778;51.142;3.732;2023-02-15T08:48:30;74.13;;;40.40;;
59922;SDS011;45778;51.142;3.732;2023-02-15T08:50:56;70.68;;;39.90;;
59922;SDS011;45778;51.142;3.732;2023-02-15T08:53:22;70.10;;;40.35;;
59922;SDS011;45778;51.142;3.732;2023-02-15T08:55:54;67.97;;;38.55;;
59922;SDS011;45778;51.142;3.732;2023-02-15T08:58:24;67.03;;;38.15;;
59922;SDS011;45778;51.142;3.732;2023-02-15T09:00:50;64.38;;;37.05;;
59922;SDS011;45778;51.142;3.732;2023-02-15T09:03:16;61.95;;;35.72;;
59922;SDS011;45778;51.142;3.732;2023-02-15T09:05:42;66.05;;;37.40;;
59922;SDS011;45778;51.142;3.732;2023-02-15T09:08:08;62.38;;;31.80;;
59922;SDS011;45778;51.142;3.732;2023-02-15T09:10:34;57.33;;;33.17;;
59922;SDS011;45778;51.142;3.732;2023-02-15T09:12:59;61.30;;;31.85;;
59922;SDS011;45778;51.142;3.732;2023-02-15T09:15:25;55.65;;;31.80;;
59922;SDS011;45778;51.142;3.732;2023-02-15T09:17:51;53.70;;;31.40;;
59922;SDS011;45778;51.142;3.732;2023-02-15T09:20:16;51.90;;;30.02;;
59922;SDS011;45778;51.142;3.732;2023-02-15T09:22:42;53.00;;;28.85;;
59922;SDS011;45778;51.142;3.732;2023-02-15T09:25:08;51.50;;;29.48;;
59922;SDS011;45778;51.142;3.732;2023-02-15T09:27:34;55.00;;;31.13;;
59922;SDS011;45778;51.142;3.732;2023-02-15T09:30:01;53.75;;;28.85;;
59922;SDS011;45778;51.142;3.732;2023-02-15T09:32:27;51.13;;;30.02;;
59922;SDS011;45778;51.142;3.732;2023-02-15T09:34:53;46.58;;;25.52;;
59922;SDS011;45778;51.142;3.732;2023-02-15T09:37:19;50.22;;;29.30;;
59922;SDS011;45778;51.142;3.732;2023-02-15T09:39:45;47.58;;;28.80;;
59922;SDS011;45778;51.142;3.732;2023-02-15T09:44:53;51.50;;;28.40;;
59922;SDS011;45778;51.142;3.732;2023-02-15T09:56:17;55.78;;;28.45;;
59922;SDS011;45778;51.142;3.732;2023-02-15T10:04:00;59.25;;;31.60;;
59922;SDS011;45778;51.142;3.732;2023-02-15T10:07:24;53.15;;;31.05;;
59922;SDS011;45778;51.142;3.732;2023-02-15T10:09:46;50.20;;;29.15;;
59922;SDS011;45778;51.142;3.732;2023-02-15T10:20:08;49.28;;;29.05;;
59922;SDS011;45778;51.142;3.732;2023-02-15T10:34:36;52.40;;;29.95;;
59922;SDS011;45778;51.142;3.732;2023-02-15T10:36:59;53.47;;;27.40;;
59922;SDS011;45778;51.142;3.732;2023-02-15T10:48:44;52.35;;;30.27;;
59922;SDS011;45778;51.142;3.732;2023-02-15T10:54:11;67.68;;;30.52;;
59922;SDS011;45778;51.142;3.732;2023-02-15T11:06:51;53.85;;;29.80;;
59922;SDS011;45778;51.142;3.732;2023-02-15T11:11:51;49.72;;;28.38;;
59922;SDS011;45778;51.142;3.732;2023-02-15T11:14:23;54.28;;;30.02;;
59922;SDS011;45778;51.142;3.732;2023-02-15T11:17:14;48.47;;;28.75;;
59922;SDS011;45778;51.142;3.732;2023-02-15T11:19:53;49.50;;;28.40;;
59922;SDS011;45778;51.142;3.732;2023-02-15T11:22:21;51.20;;;30.23;;
59922;SDS011;45778;51.142;3.732;2023-02-15T11:24:47;45.05;;;27.70;;
59922;SDS011;45778;51.142;3.732;2023-02-15T11:27:20;47.55;;;28.88;;
59922;SDS011;45778;51.142;3.732;2023-02-15T11:29:52;52.08;;;29.23;;
59922;SDS011;45778;51.142;3.732;2023-02-15T11:32:28;45.25;;;26.35;;
59922;SDS011;45778;51.142;3.732;2023-02-15T11:37:49;45.17;;;27.10;;
59922;SDS011;45778;51.142;3.732;2023-02-15T11:40:36;47.85;;;28.08;;
59922;SDS011;45778;51.142;3.732;2023-02-15T11:43:21;48.17;;;26.90;;
59922;SDS011;45778;51.142;3.732;2023-02-15T11:45:54;51.83;;;28.05;;
59922;SDS011;45778;51.142;3.732;2023-02-15T11:48:20;48.15;;;28.80;;
59922;SDS011;45778;51.142;3.732;2023-02-15T11:50:46;42.40;;;27.70;;
59922;SDS011;45778;51.142;3.732;2023-02-15T11:53:15;42.63;;;27.30;;
59922;SDS011;45778;51.142;3.732;2023-02-15T11:55:43;48.35;;;28.17;;
59922;SDS011;45778;51.142;3.732;2023-02-15T12:00:55;44.95;;;26.98;;
59922;SDS011;45778;51.142;3.732;2023-02-15T12:03:41;41.28;;;25.10;;
59922;SDS011;45778;51.142;3.732;2023-02-15T12:06:27;48.55;;;27.83;;
59922;SDS011;45778;51.142;3.732;2023-02-15T12:09:18;46.83;;;29.25;;
59922;SDS011;45778;51.142;3.732;2023-02-15T12:14:46;45.67;;;26.20;;
59922;SDS011;45778;51.142;3.732;2023-02-15T12:17:14;42.00;;;25.67;;
59922;SDS011;45778;51.142;3.732;2023-02-15T12:19:41;42.08;;;25.85;;
59922;SDS011;45778;51.142;3.732;2023-02-15T12:22:45;40.55;;;25.67;;
59922;SDS011;45778;51.142;3.732;2023-02-15T12:25:04;38.13;;;24.67;;
59922;SDS011;45778;51.142;3.732;2023-02-15T12:27:48;43.75;;;25.17;;
59922;SDS011;45778;51.142;3.732;2023-02-15T12:33:07;41.40;;;24.02;;
59922;SDS011;45778;51.142;3.732;2023-02-15T12:35:35;44.25;;;26.67;;
59922;SDS011;45778;51.142;3.732;2023-02-15T12:40:36;40.72;;;24.25;;
59922;SDS011;45778;51.142;3.732;2023-02-15T12:43:07;37.90;;;22.95;;
59922;SDS011;45778;51.142;3.732;2023-02-15T12:45:51;38.47;;;24.90;;
59922;SDS011;45778;51.142;3.732;2023-02-15T12:48:17;43.08;;;25.40;;
59922;SDS011;45778;51.142;3.732;2023-02-15T12:50:48;39.42;;;24.13;;
59922;SDS011;45778;51.142;3.732;2023-02-15T12:53:16;42.92;;;24.77;;
59922;SDS011;45778;51.142;3.732;2023-02-15T12:55:58;41.60;;;23.88;;
59922;SDS011;45778;51.142;3.732;2023-02-15T12:58:29;43.08;;;26.15;;
59922;SDS011;45778;51.142;3.732;2023-02-15T13:03:34;45.35;;;25.67;;
59922;SDS011;45778;51.142;3.732;2023-02-15T13:06:03;36.20;;;24.25;;
59922;SDS011;45778;51.142;3.732;2023-02-15T13:08:34;39.60;;;25.88;;
59922;SDS011;45778;51.142;3.732;2023-02-15T13:11:23;40.42;;;25.52;;
59922;SDS011;45778;51.142;3.732;2023-02-15T13:13:53;37.35;;;23.73;;
59922;SDS011;45778;51.142;3.732;2023-02-15T13:16:29;33.53;;;23.88;;
59922;SDS011;45778;51.142;3.732;2023-02-15T13:19:35;42.22;;;24.98;;
59922;SDS011;45778;51.142;3.732;2023-02-15T13:22:12;36.40;;;22.73;;
59922;SDS011;45778;51.142;3.732;2023-02-15T13:24:45;39.15;;;25.65;;
59922;SDS011;45778;51.142;3.732;2023-02-15T13:27:16;41.70;;;24.42;;
59922;SDS011;45778;51.142;3.732;2023-02-15T13:29:45;34.40;;;23.15;;
59922;SDS011;45778;51.142;3.732;2023-02-15T13:34:47;36.03;;;23.42;;
59922;SDS011;45778;51.142;3.732;2023-02-15T13:37:20;36.60;;;24.00;;
59922;SDS011;45778;51.142;3.732;2023-02-15T13:39:54;38.25;;;21.70;;
59922;SDS011;45778;51.142;3.732;2023-02-15T13:42:32;35.58;;;23.77;;
59922;SDS011;45778;51.142;3.732;2023-02-15T13:56:02;35.50;;;23.55;;
59922;SDS011;45778;51.142;3.732;2023-02-15T13:59:12;36.25;;;22.25;;
59922;SDS011;45778;51.142;3.732;2023-02-15T14:01:56;36.17;;;22.88;;
59922;SDS011;45778;51.142;3.732;2023-02-15T14:29:31;37.13;;;24.58;;
59922;SDS011;45778;51.142;3.732;2023-02-15T14:32:14;34.22;;;25.27;;
59922;SDS011;45778;51.142;3.732;2023-02-15T14:35:01;38.53;;;25.25;;
59922;SDS011;45778;51.142;3.732;2023-02-15T14:49:05;44.63;;;27.02;;
59922;SDS011;45778;51.142;3.732;2023-02-15T14:59:46;41.17;;;28.15;;
59922;SDS011;45778;51.142;3.732;2023-02-15T15:08:20;45.38;;;28.17;;
59922;SDS011;45778;51.142;3.732;2023-02-15T15:15:56;44.85;;;28.65;;
59922;SDS011;45778;51.142;3.732;2023-02-15T15:18:47;44.95;;;27.92;;
59922;SDS011;45778;51.142;3.732;2023-02-15T15:35:35;47.38;;;28.25;;
59922;SDS011;45778;51.142;3.732;2023-02-15T15:41:17;46.05;;;29.45;;
59922;SDS011;45778;51.142;3.732;2023-02-15T15:44:10;47.00;;;28.23;;
59922;SDS011;45778;51.142;3.732;2023-02-15T15:49:38;45.80;;;29.15;;
59922;SDS011;45778;51.142;3.732;2023-02-15T15:52:18;46.67;;;28.58;;
59922;SDS011;45778;51.142;3.732;2023-02-15T15:54:46;47.05;;;28.92;;
59922;SDS011;45778;51.142;3.732;2023-02-15T15:57:39;50.08;;;31.15;;
59922;SDS011;45778;51.142;3.732;2023-02-15T16:00:22;48.45;;;30.20;;
59922;SDS011;45778;51.142;3.732;2023-02-15T16:02:59;46.67;;;28.40;;
59922;SDS011;45778;51.142;3.732;2023-02-15T16:05:25;47.33;;;29.10;;
59922;SDS011;45778;51.142;3.732;2023-02-15T16:07:51;49.78;;;28.58;;
59922;SDS011;45778;51.142;3.732;2023-02-15T16:10:21;44.47;;;28.73;;
59922;SDS011;45778;51.142;3.732;2023-02-15T16:12:48;44.83;;;27.73;;
59922;SDS011;45778;51.142;3.732;2023-02-15T16:15:19;45.85;;;29.05;;
59922;SDS011;45778;51.142;3.732;2023-02-15T16:17:47;44.80;;;27.75;;
59922;SDS011;45778;51.142;3.732;2023-02-15T16:20:25;43.17;;;28.50;;
59922;SDS011;45778;51.142;3.732;2023-02-15T16:22:58;41.47;;;27.98;;
59922;SDS011;45778;51.142;3.732;2023-02-15T16:28:13;42.75;;;26.80;;
59922;SDS011;45778;51.142;3.732;2023-02-15T16:30:40;43.67;;;26.30;;
59922;SDS011;45778;51.142;3.732;2023-02-15T16:33:09;42.63;;;28.02;;
59922;SDS011;45778;51.142;3.732;2023-02-15T16:35:37;43.08;;;27.67;;
59922;SDS011;45778;51.142;3.732;2023-02-15T16:38:05;48.97;;;28.20;;
59922;SDS011;45778;51.142;3.732;2023-02-15T16:40:39;42.50;;;24.85;;
59922;SDS011;45778;51.142;3.732;2023-02-15T16:45:38;40.95;;;27.13;;
59922;SDS011;45778;51.142;3.732;2023-02-15T16:48:06;46.58;;;28.13;;
59922;SDS011;45778;51.142;3.732;2023-02-15T16:50:39;44.22;;;28.60;;
59922;SDS011;45778;51.142;3.732;2023-02-15T16:53:14;47.80;;;29.40;;
59922;SDS011;45778;51.142;3.732;2023-02-15T16:55:45;48.05;;;29.98;;
59922;SDS011;45778;51.142;3.732;2023-02-15T16:58:16;46.92;;;29.92;;
59922;SDS011;45778;51.142;3.732;2023-02-15T17:00:45;47.72;;;30.77;;
59922;SDS011;45778;51.142;3.732;2023-02-15T17:05:47;47.35;;;30.02;;
59922;SDS011;45778;51.142;3.732;2023-02-15T17:08:26;51.50;;;29.90;;
59922;SDS011;45778;51.142;3.732;2023-02-15T17:13:31;44.05;;;29.33;;
59922;SDS011;45778;51.142;3.732;2023-02-15T17:18:26;47.78;;;29.70;;
59922;SDS011;45778;51.142;3.732;2023-02-15T17:20:59;49.95;;;30.20;;
59922;SDS011;45778;51.142;3.732;2023-02-15T17:23:35;54.88;;;31.77;;
59922;SDS011;45778;51.142;3.732;2023-02-15T17:26:16;61.63;;;30.67;;
59922;SDS011;45778;51.142;3.732;2023-02-15T17:28:46;49.58;;;30.00;;
59922;SDS011;45778;51.142;3.732;2023-02-15T17:31:15;50.30;;;30.25;;
59922;SDS011;45778;51.142;3.732;2023-02-15T17:33:43;45.15;;;26.58;;
59922;SDS011;45778;51.142;3.732;2023-02-15T17:38:58;43.28;;;27.00;;
59922;SDS011;45778;51.142;3.732;2023-02-15T17:41:43;47.85;;;27.38;;
59922;SDS011;45778;51.142;3.732;2023-02-15T17:44:09;52.75;;;28.98;;
59922;SDS011;45778;51.142;3.732;2023-02-15T17:46:39;49.55;;;30.08;;
59922;SDS011;45778;51.142;3.732;2023-02-15T17:49:05;48.50;;;29.00;;
59922;SDS011;45778;51.142;3.732;2023-02-15T17:51:32;48.95;;;29.85;;
59922;SDS011;45778;51.142;3.732;2023-02-15T17:54:00;44.92;;;28.70;;
59922;SDS011;45778;51.142;3.732;2023-02-15T17:56:45;46.22;;;30.05;;
59922;SDS011;45778;51.142;3.732;2023-02-15T17:59:10;54.67;;;30.73;;
59922;SDS011;45778;51.142;3.732;2023-02-15T18:01:41;51.58;;;29.77;;
59922;SDS011;45778;51.142;3.732;2023-02-15T18:04:29;47.05;;;29.98;;
59922;SDS011;45778;51.142;3.732;2023-02-15T18:07:16;53.28;;;29.60;;
59922;SDS011;45778;51.142;3.732;2023-02-15T18:10:02;45.88;;;29.67;;
59922;SDS011;45778;51.142;3.732;2023-02-15T18:12:55;50.88;;;30.85;;
59922;SDS011;45778;51.142;3.732;2023-02-15T18:15:20;49.13;;;31.17;;
59922;SDS011;45778;51.142;3.732;2023-02-15T18:17:48;46.75;;;28.35;;
59922;SDS011;45778;51.142;3.732;2023-02-15T18:20:18;48.15;;;30.67;;
59922;SDS011;45778;51.142;3.732;2023-02-15T18:22:48;52.60;;;32.22;;
59922;SDS011;45778;51.142;3.732;2023-02-15T18:25:16;52.95;;;30.88;;